sim
Sign-in with your pilot id or email,
or register
Callsign
Passwort

Schedule Details

Flight Number: UAE9818 (A)
Departure: Dubai World Central International Airport (OMDW) at 13:20
Arrival: Mumbai Chhatrapati Shivaji International Airport (VABB) at 16:10
Route: Emirates Cargo Schedule. Enter filed route here before submitting Pirep.

Weather Information
Getting current METAR information for OMDW 191900Z 03007KT 9000 NSC 34/23 Q1004 NOSIG
Getting current METAR information for VABB 191900Z 27007KT 3500 HZ FEW020 SCT025 28/25 Q1010 BECMG 3000 HZ

Schedule Frequency

Route Map